Time;durP1;ratioP1;P1;durP2;ratioP2;P2;SDS_P1;SDS_P2;PMS_P1;PMS_P2;Temp;Humidity;BMP_temperature;BMP_pressure;BME280_temperature;BME280_humidity;BME280_pressure;Samples;Min_cycle;Max_cycle;Signal;HPM_P1;HPM_P2
2022/10/27 00:01:59;;;;;;;11.33;3.70;;;12.10;99.90;;;;;;5026277;28;20111;-71
2022/10/27 00:04:25;;;;;;;18.97;4.23;;;12.00;99.90;;;;;;5011461;28;20045;-71
2022/10/27 00:06:51;;;;;;;12.50;3.83;;;12.10;99.90;;;;;;5029487;28;20564;-71
2022/10/27 00:09:16;;;;;;;16.93;3.53;;;12.00;99.90;;;;;;5014068;28;20045;-71
2022/10/27 00:11:42;;;;;;;10.47;3.03;;;12.00;99.90;;;;;;5030530;28;20048;-71
2022/10/27 00:14:08;;;;;;;15.33;4.43;;;12.00;99.90;;;;;;5014149;28;20179;-71
2022/10/27 00:16:33;;;;;;;9.77;3.40;;;12.00;99.90;;;;;;5029313;28;20053;-71
2022/10/27 00:19:00;;;;;;;12.00;4.37;;;12.00;99.90;;;;;;5030737;28;20521;-71
2022/10/27 00:21:26;;;;;;;14.93;4.67;;;12.00;99.90;;;;;;5012761;28;20041;-71
2022/10/27 00:23:51;;;;;;;15.87;4.87;;;11.90;99.90;;;;;;5014060;28;20850;-71
2022/10/27 00:26:19;;;;;;;14.83;5.00;;;11.90;99.90;;;;;;5013734;28;20147;-71
2022/10/27 00:28:45;;;;;;;11.70;5.10;;;11.90;99.90;;;;;;5014853;28;20053;-71
2022/10/27 00:31:14;;;;;;;14.03;5.13;;;11.90;99.90;;;;;;5016015;28;20287;-71
2022/10/27 00:33:40;;;;;;;11.43;5.53;;;11.90;99.90;;;;;;5015615;28;20309;-71
2022/10/27 00:36:20;;;;;;;14.13;5.70;;;11.90;99.90;;;;;;5033353;28;20280;-71
2022/10/27 00:38:46;;;;;;;15.50;5.73;;;11.90;99.90;;;;;;5037637;28;20343;-71
2022/10/27 00:41:27;;;;;;;13.23;6.23;;;11.90;99.90;;;;;;5037699;28;20273;-71
2022/10/27 00:43:53;;;;;;;19.30;4.93;;;12.00;99.90;;;;;;5040062;28;20516;-71
2022/10/27 00:46:23;;;;;;;11.80;4.70;;;12.00;99.90;;;;;;5025684;28;20300;-71
2022/10/27 00:48:54;;;;;;;18.47;5.57;;;12.00;99.90;;;;;;5027095;28;20656;-71
2022/10/27 00:51:20;;;;;;;13.87;5.93;;;12.00;99.90;;;;;;5033694;28;20335;-71
2022/10/27 00:53:46;;;;;;;13.57;5.47;;;12.00;99.90;;;;;;5016936;28;20379;-71
2022/10/27 00:56:13;;;;;;;12.90;5.20;;;12.00;99.90;;;;;;5034065;28;20771;-71
2022/10/27 00:58:39;;;;;;;18.27;6.17;;;12.00;99.90;;;;;;5035296;28;20292;-71
2022/10/27 01:01:05;;;;;;;12.80;5.87;;;11.90;99.90;;;;;;5040168;28;20280;-71
2022/10/27 01:03:32;;;;;;;16.57;5.47;;;12.00;99.90;;;;;;5039791;28;20367;-71
2022/10/27 01:05:58;;;;;;;15.07;6.17;;;12.00;99.90;;;;;;5040965;28;20279;-71
2022/10/27 01:08:25;;;;;;;16.30;5.70;;;12.00;99.90;;;;;;5020581;28;20319;-71
2022/10/27 01:10:52;;;;;;;12.07;6.43;;;12.10;99.90;;;;;;5035452;28;20373;-71
2022/10/27 01:13:19;;;;;;;17.27;6.57;;;12.10;99.90;;;;;;5023697;28;20284;-71
2022/10/27 01:16:06;;;;;;;14.90;6.37;;;12.10;99.90;;;;;;5018889;28;20676;-71
2022/10/27 01:18:41;;;;;;;17.20;7.30;;;12.10;99.90;;;;;;5023525;28;20735;-71
2022/10/27 01:21:32;;;;;;;14.07;6.97;;;12.20;99.90;;;;;;5028110;28;20279;-71
2022/10/27 01:23:57;;;;;;;15.20;7.50;;;12.20;99.90;;;;;;5028471;28;20571;-71
2022/10/27 01:26:32;;;;;;;15.07;8.00;;;12.20;99.90;;;;;;5017769;28;20285;-71
2022/10/27 01:29:07;;;;;;;16.63;7.20;;;12.20;99.90;;;;;;5035276;28;20038;-71
2022/10/27 01:31:49;;;;;;;14.50;8.90;;;12.10;99.90;;;;;;5022464;28;20064;-71
2022/10/27 01:34:34;;;;;;;13.53;7.83;;;12.10;99.90;;;;;;5033444;28;20049;-71
2022/10/27 01:37:12;;;;;;;15.70;8.27;;;12.00;99.90;;;;;;5011853;28;20304;-71
2022/10/27 01:40:12;;;;;;;17.27;8.93;;;11.90;99.90;;;;;;5032585;28;20778;-71
2022/10/27 01:42:44;;;;;;;14.10;9.97;;;11.90;99.90;;;;;;5054866;28;20280;-71
2022/10/27 01:45:13;;;;;;;20.90;9.03;;;11.90;99.90;;;;;;5039560;28;20312;-71
2022/10/27 01:47:39;;;;;;;17.40;9.37;;;11.80;99.90;;;;;;5035059;28;20310;-71
2022/10/27 01:50:06;;;;;;;18.57;10.30;;;11.90;99.90;;;;;;5034366;28;20632;-71
2022/10/27 01:52:48;;;;;;;17.77;10.17;;;11.90;99.90;;;;;;5017853;28;20279;-71
2022/10/27 01:55:48;;;;;;;19.37;10.83;;;11.90;99.90;;;;;;5034780;28;20787;-71
2022/10/27 01:58:30;;;;;;;14.97;10.53;;;11.90;99.90;;;;;;5015368;28;20357;-71
2022/10/27 02:01:21;;;;;;;21.10;10.73;;;11.90;99.90;;;;;;5034253;28;20273;-71
2022/10/27 02:04:00;;;;;;;20.67;9.90;;;11.90;99.90;;;;;;5018559;28;20297;-71
2022/10/27 02:06:33;;;;;;;21.47;10.80;;;11.90;99.90;;;;;;5031775;28;20281;-71
2022/10/27 02:09:09;;;;;;;19.87;11.40;;;12.00;99.90;;;;;;5017468;28;20295;-71
2022/10/27 02:11:38;;;;;;;15.63;10.50;;;12.00;99.90;;;;;;5034959;28;20276;-71
2022/10/27 02:14:05;;;;;;;25.27;11.50;;;12.10;99.90;;;;;;5037904;28;20280;-71
2022/10/27 02:16:35;;;;;;;18.93;10.57;;;12.10;99.90;;;;;;5020661;28;20932;-71
2022/10/27 02:19:06;;;;;;;21.40;11.13;;;12.20;99.90;;;;;;5036701;28;20886;-71
2022/10/27 02:21:35;;;;;;;20.30;11.20;;;12.20;99.90;;;;;;5037762;28;20284;-71
2022/10/27 02:24:01;;;;;;;17.97;10.27;;;12.30;99.90;;;;;;5020445;28;20272;-71
2022/10/27 02:26:56;;;;;;;16.40;10.43;;;12.30;99.90;;;;;;5036645;28;20594;-71
2022/10/27 02:29:40;;;;;;;20.25;11.30;;;12.30;99.90;;;;;;5021078;28;20315;-71
2022/10/27 02:32:10;;;;;;;22.80;11.13;;;12.30;99.90;;;;;;5035922;28;20037;-71
2022/10/27 02:34:37;;;;;;;15.13;9.23;;;12.40;99.90;;;;;;5036494;28;20838;-71
2022/10/27 02:37:04;;;;;;;18.93;10.13;;;12.40;99.90;;;;;;5035705;28;20328;-71
2022/10/27 02:39:30;;;;;;;19.47;9.97;;;12.50;99.90;;;;;;5037716;28;20351;-71
2022/10/27 02:41:56;;;;;;;17.57;10.33;;;12.50;99.90;;;;;;5027248;28;20679;-71
2022/10/27 02:44:22;;;;;;;20.07;11.13;;;12.60;99.90;;;;;;5036556;28;20037;-71
2022/10/27 02:46:47;;;;;;;16.97;10.07;;;12.60;99.90;;;;;;5036824;28;20045;-71
2022/10/27 02:49:13;;;;;;;19.37;11.20;;;12.60;99.90;;;;;;5041534;28;20072;-71
2022/10/27 02:51:39;;;;;;;20.80;10.00;;;12.70;99.90;;;;;;5033970;28;20128;-71
2022/10/27 02:54:05;;;;;;;20.30;10.87;;;12.70;99.90;;;;;;5035113;28;20044;-71
2022/10/27 02:56:30;;;;;;;18.93;10.43;;;12.80;99.90;;;;;;5034529;28;20072;-71
2022/10/27 02:58:56;;;;;;;18.13;10.13;;;12.80;99.90;;;;;;5039814;28;20042;-71
2022/10/27 03:01:22;;;;;;;17.40;9.93;;;12.80;99.90;;;;;;5000892;28;20465;-71
2022/10/27 03:03:47;;;;;;;19.13;10.90;;;12.90;99.90;;;;;;5035159;28;20119;-71
2022/10/27 03:06:13;;;;;;;20.43;10.03;;;12.90;99.90;;;;;;5031510;28;20493;-71
2022/10/27 03:08:39;;;;;;;19.30;10.23;;;13.00;99.90;;;;;;5033028;28;20321;-71
2022/10/27 03:11:04;;;;;;;18.53;9.47;;;13.00;99.90;;;;;;5033178;28;20060;-71
2022/10/27 03:13:30;;;;;;;16.20;9.20;;;13.00;99.90;;;;;;5033057;28;20050;-71
2022/10/27 03:15:56;;;;;;;20.27;10.17;;;13.00;99.90;;;;;;5040030;28;20435;-71
2022/10/27 03:18:22;;;;;;;18.30;10.23;;;13.10;99.90;;;;;;5012954;28;20049;-71
2022/10/27 03:20:47;;;;;;;15.60;9.33;;;13.10;99.90;;;;;;4999869;28;20140;-71
2022/10/27 03:23:13;;;;;;;17.33;9.43;;;13.10;99.90;;;;;;5016742;28;20116;-71
2022/10/27 03:25:43;;;;;;;19.10;9.80;;;13.10;99.90;;;;;;5026599;28;20144;-71
2022/10/27 03:28:12;;;;;;;18.27;8.83;;;13.10;99.90;;;;;;5014320;28;20493;-71
2022/10/27 03:30:38;;;;;;;16.33;9.00;;;13.00;99.90;;;;;;5031440;28;20348;-71
2022/10/27 03:33:04;;;;;;;12.77;8.97;;;13.00;99.90;;;;;;5034691;28;20284;-71
2022/10/27 03:35:31;;;;;;;17.43;9.63;;;13.00;99.90;;;;;;5017697;28;20346;-71
2022/10/27 03:37:58;;;;;;;15.07;9.10;;;13.00;99.90;;;;;;5031899;28;20594;-71
2022/10/27 03:40:25;;;;;;;13.33;8.90;;;13.00;99.90;;;;;;5034117;28;20290;-71
2022/10/27 03:42:52;;;;;;;14.70;9.10;;;13.00;99.90;;;;;;5041303;28;20318;-71
2022/10/27 03:45:18;;;;;;;15.33;9.03;;;13.00;99.90;;;;;;5042045;28;20296;-71
2022/10/27 03:47:44;;;;;;;13.63;8.67;;;12.90;99.90;;;;;;5019223;28;20299;-71
2022/10/27 03:50:09;;;;;;;18.47;9.63;;;12.90;99.90;;;;;;5038484;28;20053;-71
2022/10/27 03:52:35;;;;;;;16.17;9.07;;;12.80;99.90;;;;;;5020510;28;20038;-71
2022/10/27 03:55:01;;;;;;;15.53;8.47;;;12.80;99.90;;;;;;5018593;28;20411;-71
2022/10/27 03:57:26;;;;;;;24.13;9.93;;;12.70;99.90;;;;;;5044034;28;20044;-71
2022/10/27 03:59:52;;;;;;;14.17;8.50;;;12.70;99.90;;;;;;5021517;28;20090;-71
2022/10/27 04:02:18;;;;;;;16.50;9.17;;;12.70;99.90;;;;;;5008318;28;20055;-71
2022/10/27 04:04:43;;;;;;;16.87;9.10;;;12.60;99.90;;;;;;5039851;28;20041;-71
2022/10/27 04:07:09;;;;;;;15.90;9.17;;;12.60;99.90;;;;;;5029656;28;20079;-71
2022/10/27 04:09:35;;;;;;;16.37;9.03;;;12.60;99.90;;;;;;5022358;28;20042;-71
2022/10/27 04:12:00;;;;;;;15.27;9.30;;;12.60;99.90;;;;;;5024053;28;20056;-71
2022/10/27 04:14:26;;;;;;;16.67;8.70;;;12.60;99.90;;;;;;5041108;28;20061;-71
2022/10/27 04:16:52;;;;;;;14.23;9.20;;;12.60;99.90;;;;;;5023024;28;20183;-71
2022/10/27 04:19:18;;;;;;;17.13;9.23;;;12.60;99.90;;;;;;5024428;28;20033;-71
2022/10/27 04:21:45;;;;;;;15.67;8.53;;;12.50;99.90;;;;;;5040773;28;20038;-71
2022/10/27 04:24:11;;;;;;;19.50;9.43;;;12.50;99.90;;;;;;5045522;28;20303;-71
2022/10/27 04:26:37;;;;;;;16.60;8.60;;;12.40;99.90;;;;;;5042028;28;20280;-71
2022/10/27 04:29:03;;;;;;;14.00;8.23;;;12.40;99.90;;;;;;5041812;28;20279;-71
2022/10/27 04:31:29;;;;;;;11.13;7.77;;;12.30;99.90;;;;;;5042187;28;20276;-71
2022/10/27 04:33:55;;;;;;;16.40;7.87;;;12.30;99.90;;;;;;5046055;28;20346;-71
2022/10/27 04:36:20;;;;;;;15.77;8.10;;;12.20;99.90;;;;;;5041390;28;20037;-71
2022/10/27 04:38:50;;;;;;;13.27;7.67;;;12.20;99.90;;;;;;5025086;28;20044;-71
2022/10/27 04:41:16;;;;;;;18.70;8.10;;;12.20;99.90;;;;;;5028024;28;20037;-71
2022/10/27 04:43:42;;;;;;;11.93;7.53;;;12.10;99.90;;;;;;5043819;28;20676;-71
2022/10/27 04:46:08;;;;;;;14.20;7.97;;;12.10;99.90;;;;;;5032700;28;20286;-71
2022/10/27 04:48:33;;;;;;;20.37;8.00;;;12.20;99.90;;;;;;5047695;28;20468;-71
2022/10/27 04:50:59;;;;;;;13.90;7.63;;;12.20;99.90;;;;;;5024539;28;20284;-71
2022/10/27 04:53:25;;;;;;;15.37;8.33;;;12.30;99.90;;;;;;5057911;28;20045;-71
2022/10/27 04:55:53;;;;;;;18.27;7.97;;;12.30;99.90;;;;;;5041161;28;20045;-71
2022/10/27 04:58:19;;;;;;;20.03;8.10;;;12.40;99.90;;;;;;5025447;28;20042;-71
2022/10/27 05:00:46;;;;;;;11.33;7.53;;;12.50;99.90;;;;;;5025449;28;20368;-71
2022/10/27 05:03:12;;;;;;;15.87;7.70;;;12.60;99.90;;;;;;5008294;28;20303;-71
2022/10/27 05:05:37;;;;;;;14.53;7.97;;;12.60;99.90;;;;;;5041384;28;20312;-71
2022/10/27 05:08:04;;;;;;;14.77;8.57;;;12.60;99.90;;;;;;5041719;28;20532;-71
2022/10/27 05:10:31;;;;;;;18.90;8.00;;;12.70;99.90;;;;;;5026955;28;20120;-71
2022/10/27 05:12:57;;;;;;;14.87;8.27;;;12.80;99.90;;;;;;5022981;28;20314;-71
2022/10/27 05:15:23;;;;;;;14.70;8.00;;;12.80;99.90;;;;;;5023433;28;20280;-71
2022/10/27 05:17:49;;;;;;;17.27;8.23;;;12.80;99.90;;;;;;5040147;28;20311;-71
2022/10/27 05:20:15;;;;;;;16.73;7.67;;;12.90;99.90;;;;;;5022024;28;20277;-71
2022/10/27 05:22:41;;;;;;;12.63;8.20;;;12.90;99.90;;;;;;5036298;28;20033;-71
2022/10/27 05:25:07;;;;;;;15.77;8.17;;;12.90;99.90;;;;;;5002266;28;20288;-71
2022/10/27 05:27:34;;;;;;;17.83;8.20;;;13.00;99.90;;;;;;5032064;28;20041;-71
2022/10/27 05:29:59;;;;;;;15.70;7.90;;;13.00;99.90;;;;;;5033051;28;20280;-71
2022/10/27 05:32:25;;;;;;;17.93;7.80;;;13.00;99.90;;;;;;5019804;28;20279;-71
2022/10/27 05:34:51;;;;;;;14.03;7.87;;;13.00;99.90;;;;;;5019010;28;20198;-71
2022/10/27 05:37:16;;;;;;;14.27;7.50;;;13.10;99.90;;;;;;5013725;28;20046;-71
2022/10/27 05:39:42;;;;;;;19.03;8.17;;;13.10;99.90;;;;;;5012321;28;20041;-71
2022/10/27 05:42:08;;;;;;;13.77;7.43;;;13.10;99.90;;;;;;5021949;28;20376;-71
2022/10/27 05:44:33;;;;;;;18.80;8.27;;;13.10;99.90;;;;;;5032267;28;20161;-71
2022/10/27 05:46:59;;;;;;;18.67;7.13;;;13.10;99.90;;;;;;5038708;28;20095;-72
2022/10/27 05:49:25;;;;;;;16.23;7.80;;;13.10;99.90;;;;;;5037260;28;20041;-72
2022/10/27 05:51:51;;;;;;;13.30;8.07;;;13.20;99.90;;;;;;5017152;28;20623;-72
2022/10/27 05:54:17;;;;;;;13.43;7.37;;;13.20;99.90;;;;;;5030437;28;20072;-72
2022/10/27 05:56:43;;;;;;;15.63;7.90;;;13.20;99.90;;;;;;5031901;28;20304;-72
2022/10/27 05:59:12;;;;;;;15.83;8.27;;;13.30;99.90;;;;;;5015210;28;20350;-72
2022/10/27 06:01:38;;;;;;;15.17;7.23;;;13.30;99.90;;;;;;5014655;28;20046;-72
2022/10/27 06:04:04;;;;;;;14.23;7.37;;;13.30;99.90;;;;;;5034926;28;20343;-72
2022/10/27 06:06:29;;;;;;;17.10;8.60;;;13.30;99.90;;;;;;5031773;28;20049;-72
2022/10/27 06:08:55;;;;;;;13.57;7.23;;;13.30;99.90;;;;;;5016496;28;20099;-72
2022/10/27 06:11:21;;;;;;;17.00;7.07;;;13.30;99.90;;;;;;5033397;28;20047;-70
2022/10/27 06:13:50;;;;;;;16.03;6.90;;;13.30;99.90;;;;;;5033032;28;20037;-70
2022/10/27 06:16:18;;;;;;;13.00;7.00;;;13.30;99.90;;;;;;5032236;28;20033;-70
2022/10/27 06:18:44;;;;;;;15.00;6.90;;;13.30;99.90;;;;;;5031089;28;20304;-70
2022/10/27 06:21:10;;;;;;;10.90;6.23;;;13.20;99.90;;;;;;5019226;28;20303;-70
2022/10/27 06:23:36;;;;;;;14.23;7.20;;;13.30;99.90;;;;;;5013798;28;20269;-70
2022/10/27 06:26:02;;;;;;;15.07;7.57;;;13.20;99.90;;;;;;5015353;28;20081;-70
2022/10/27 06:28:28;;;;;;;17.33;7.73;;;13.20;99.90;;;;;;5039282;28;20291;-70
2022/10/27 06:30:54;;;;;;;11.17;7.03;;;13.20;99.90;;;;;;5054016;28;20295;-70
2022/10/27 06:33:20;;;;;;;18.07;7.90;;;13.20;99.90;;;;;;5016612;28;20072;-70
2022/10/27 06:35:46;;;;;;;13.83;7.40;;;13.10;99.90;;;;;;5034435;28;20474;-70
2022/10/27 06:38:15;;;;;;;13.87;7.20;;;13.10;99.90;;;;;;5035561;28;20049;-70
2022/10/27 06:40:42;;;;;;;15.30;7.20;;;13.10;99.90;;;;;;5035604;28;20107;-70
2022/10/27 06:43:09;;;;;;;9.10;6.73;;;13.10;99.90;;;;;;5033772;28;20856;-72
2022/10/27 06:45:35;;;;;;;12.93;6.83;;;13.10;99.90;;;;;;5039726;28;20299;-73
2022/10/27 06:48:02;;;;;;;13.47;6.80;;;13.00;99.90;;;;;;5033425;28;20326;-72
2022/10/27 06:50:28;;;;;;;14.07;6.97;;;13.00;99.90;;;;;;5022392;28;20528;-73
2022/10/27 06:52:54;;;;;;;12.40;6.90;;;13.00;99.90;;;;;;5031395;28;20961;-72
2022/10/27 06:55:20;;;;;;;12.87;7.03;;;13.00;99.90;;;;;;5030861;28;20449;-72
2022/10/27 06:57:46;;;;;;;15.90;7.60;;;12.90;99.90;;;;;;5014758;28;20037;-72
2022/10/27 07:00:12;;;;;;;12.53;7.53;;;12.90;99.90;;;;;;5015638;28;20033;-73
2022/10/27 07:02:38;;;;;;;14.53;8.00;;;12.90;99.90;;;;;;5033538;28;20596;-72
2022/10/27 07:05:05;;;;;;;13.00;7.30;;;12.90;99.90;;;;;;5012960;28;20346;-72
2022/10/27 07:07:31;;;;;;;12.90;7.87;;;12.90;99.90;;;;;;5011882;28;20366;-72
2022/10/27 07:09:57;;;;;;;12.37;7.83;;;12.90;99.90;;;;;;5030260;28;20287;-72
2022/10/27 07:12:22;;;;;;;12.97;8.00;;;12.90;99.90;;;;;;5029916;28;20318;-72
2022/10/27 07:14:48;;;;;;;11.70;7.73;;;12.90;99.90;;;;;;5035673;28;20400;-72
2022/10/27 07:17:14;;;;;;;17.67;8.30;;;13.00;99.90;;;;;;5037688;28;20045;-72
2022/10/27 07:19:40;;;;;;;15.60;7.80;;;13.00;99.90;;;;;;5022018;28;20034;-72
2022/10/27 07:22:06;;;;;;;13.70;8.23;;;13.00;99.90;;;;;;5026907;28;20287;-73
2022/10/27 07:24:32;;;;;;;13.60;8.40;;;13.00;99.90;;;;;;5008713;28;20037;-73
2022/10/27 07:26:57;;;;;;;13.80;7.83;;;13.10;99.90;;;;;;5025199;28;20080;-73
2022/10/27 07:29:23;;;;;;;15.07;8.10;;;13.10;99.90;;;;;;5026170;28;20069;-72
2022/10/27 07:31:49;;;;;;;11.73;8.20;;;13.20;99.90;;;;;;5026153;28;20531;-72
2022/10/27 07:34:14;;;;;;;14.57;8.33;;;13.20;99.90;;;;;;5027945;28;20064;-73
2022/10/27 07:36:40;;;;;;;12.87;8.30;;;13.20;99.90;;;;;;5026247;28;20038;-72
2022/10/27 07:39:06;;;;;;;14.00;7.40;;;13.30;99.90;;;;;;5020880;28;20037;-73
2022/10/27 07:41:32;;;;;;;11.07;7.80;;;13.30;99.90;;;;;;5023819;28;20110;-72
2022/10/27 07:43:57;;;;;;;14.07;7.30;;;13.40;99.90;;;;;;5009044;28;20034;-72
2022/10/27 07:46:23;;;;;;;11.47;7.00;;;13.40;99.90;;;;;;5008750;28;20037;-73
2022/10/27 07:48:49;;;;;;;11.00;6.70;;;13.50;99.90;;;;;;5023711;28;20049;-73
2022/10/27 07:51:15;;;;;;;11.17;6.63;;;13.50;99.90;;;;;;5027690;28;20034;-72
2022/10/27 07:53:40;;;;;;;12.37;6.97;;;13.60;99.90;;;;;;5019092;28;20409;-73
2022/10/27 07:56:06;;;;;;;10.27;6.07;;;13.60;99.90;;;;;;5008643;28;20051;-73
2022/10/27 07:58:32;;;;;;;9.97;6.10;;;13.70;99.90;;;;;;5025676;28;20693;-72
2022/10/27 08:00:59;;;;;;;9.13;6.40;;;13.70;99.90;;;;;;5031522;28;20280;-73
2022/10/27 08:03:28;;;;;;;12.30;6.57;;;13.70;99.90;;;;;;5023505;28;20060;-73
2022/10/27 08:05:54;;;;;;;13.03;5.87;;;13.70;99.90;;;;;;5024572;28;20276;-72
2022/10/27 08:08:20;;;;;;;12.63;5.80;;;13.70;99.90;;;;;;5009213;28;20364;-73
2022/10/27 08:10:48;;;;;;;9.23;5.30;;;13.70;99.90;;;;;;5006984;28;20280;-72
2022/10/27 08:13:14;;;;;;;10.77;5.53;;;13.70;99.90;;;;;;5005280;28;20780;-72
2022/10/27 08:15:40;;;;;;;10.93;6.03;;;13.70;99.90;;;;;;5023351;28;20284;-73
2022/10/27 08:18:07;;;;;;;8.63;5.27;;;13.70;99.90;;;;;;5008672;28;20365;-73
2022/10/27 08:20:40;;;;;;;11.67;5.60;;;13.80;99.90;;;;;;5021706;28;20288;-72
2022/10/27 08:23:09;;;;;;;7.27;5.33;;;13.80;99.90;;;;;;5021880;28;20287;-73
2022/10/27 08:25:35;;;;;;;11.37;5.37;;;13.90;99.90;;;;;;5005604;28;20280;-72
2022/10/27 08:28:01;;;;;;;9.50;5.23;;;14.00;99.90;;;;;;5023795;28;20291;-72
2022/10/27 08:30:28;;;;;;;8.97;4.80;;;14.10;99.90;;;;;;5030805;28;20315;-72
2022/10/27 08:32:56;;;;;;;9.03;4.90;;;14.20;99.90;;;;;;5024488;28;20438;-72
2022/10/27 08:35:22;;;;;;;7.53;4.43;;;14.30;99.90;;;;;;5039697;28;20307;-72
2022/10/27 08:37:48;;;;;;;13.00;4.90;;;14.40;99.90;;;;;;5039830;28;20299;-71
2022/10/27 08:40:14;;;;;;;12.53;5.27;;;14.60;99.90;;;;;;5040298;28;20312;-72
2022/10/27 08:43:24;;;;;;;7.73;4.03;;;14.70;99.90;;;;;;5042311;28;20103;-71
2022/10/27 08:45:57;;;;;;;6.20;3.70;;;14.90;99.90;;;;;;5016984;28;20723;-72
2022/10/27 08:48:26;;;;;;;6.53;4.13;;;15.00;99.90;;;;;;5051686;28;20298;-72
2022/10/27 08:50:52;;;;;;;8.10;4.00;;;15.10;99.90;;;;;;5044766;28;20280;-72
2022/10/27 08:53:32;;;;;;;8.77;4.60;;;15.20;99.90;;;;;;5034649;28;20283;-72
2022/10/27 08:56:03;;;;;;;8.50;3.80;;;15.30;99.90;;;;;;5031388;28;20715;-72
2022/10/27 08:58:35;;;;;;;5.93;3.77;;;15.40;99.90;;;;;;5023425;28;20307;-71
2022/10/27 09:01:19;;;;;;;7.67;3.80;;;15.40;99.90;;;;;;5024001;28;20327;-72
2022/10/27 09:03:51;;;;;;;7.77;3.47;;;15.40;99.90;;;;;;5024981;28;20288;-72
2022/10/27 09:06:23;;;;;;;10.27;3.97;;;15.50;99.90;;;;;;5010303;28;20659;-73
2022/10/27 09:09:04;;;;;;;6.77;3.50;;;15.50;99.90;;;;;;5013049;28;20288;-72
2022/10/27 09:12:09;;;;;;;7.47;3.70;;;15.50;99.90;;;;;;5033378;28;20789;-72
2022/10/27 09:15:12;;;;;;;7.28;3.53;;;15.60;99.90;;;;;;5032257;28;20284;-72
2022/10/27 09:18:07;;;;;;;7.50;4.07;;;15.60;99.90;;;;;;5028481;28;20052;-72
2022/10/27 09:20:41;;;;;;;5.60;3.33;;;15.70;99.90;;;;;;5024159;28;20334;-72
2022/10/27 09:23:17;;;;;;;8.57;4.17;;;15.80;99.90;;;;;;5024366;28;20280;-72
2022/10/27 09:25:46;;;;;;;6.43;3.77;;;15.80;99.90;;;;;;5037923;28;20292;-72
2022/10/27 09:28:18;;;;;;;7.17;3.50;;;15.90;99.90;;;;;;5027606;28;20616;-72
2022/10/27 09:30:45;;;;;;;6.40;3.40;;;15.90;99.90;;;;;;5027641;28;20388;-72
2022/10/27 09:33:19;;;;;;;9.83;4.13;;;16.00;99.90;;;;;;5011261;28;20850;-72
2022/10/27 09:35:45;;;;;;;7.33;4.33;;;16.00;99.90;;;;;;5034221;28;20656;-72
2022/10/27 09:38:14;;;;;;;10.40;4.37;;;16.00;99.90;;;;;;5025608;28;20512;-72
2022/10/27 09:40:40;;;;;;;7.23;3.50;;;16.10;99.90;;;;;;5012183;28;20729;-72
2022/10/27 09:43:09;;;;;;;8.67;3.77;;;16.10;99.90;;;;;;5012088;28;20367;-72
2022/10/27 09:45:35;;;;;;;8.50;3.67;;;16.00;99.90;;;;;;5042250;28;20380;-72
2022/10/27 09:48:06;;;;;;;7.67;4.00;;;16.00;99.90;;;;;;5026445;28;20311;-72
2022/10/27 09:50:54;;;;;;;8.60;4.07;;;16.00;99.90;;;;;;5011808;28;20303;-72
2022/10/27 09:53:38;;;;;;;8.60;3.63;;;16.10;99.90;;;;;;5033844;28;20675;-72
2022/10/27 09:56:05;;;;;;;9.63;4.40;;;16.10;99.90;;;;;;5030442;28;20291;-72
2022/10/27 09:58:48;;;;;;;7.07;3.50;;;16.20;99.90;;;;;;5035392;28;20352;-72
2022/10/27 10:01:14;;;;;;;9.03;3.57;;;16.30;99.90;;;;;;5028381;28;20814;-72
2022/10/27 10:03:55;;;;;;;8.37;3.67;;;16.30;99.90;;;;;;5027543;28;20296;-72
2022/10/27 10:06:39;;;;;;;7.27;3.37;;;16.40;99.90;;;;;;5011431;28;20341;-72
2022/10/27 10:09:17;;;;;;;7.37;3.40;;;16.40;99.90;;;;;;5040742;28;20295;-72
2022/10/27 10:11:43;;;;;;;9.93;3.57;;;16.50;99.90;;;;;;5013132;28;20294;-72
2022/10/27 10:14:23;;;;;;;8.03;3.40;;;16.50;99.90;;;;;;5011928;28;20803;-72
2022/10/27 10:16:50;;;;;;;8.60;3.40;;;16.60;99.90;;;;;;5028061;28;20070;-72
2022/10/27 10:19:18;;;;;;;6.90;3.90;;;16.60;99.90;;;;;;5028679;28;20280;-72
2022/10/27 10:21:55;;;;;;;13.07;4.03;;;16.60;99.90;;;;;;5026503;28;20361;-72
2022/10/27 10:24:27;;;;;;;5.83;3.10;;;16.70;99.90;;;;;;5026963;28;20280;-72
2022/10/27 10:26:58;;;;;;;7.97;3.67;;;16.70;99.90;;;;;;5045212;28;20283;-72
2022/10/27 10:29:30;;;;;;;7.53;3.20;;;16.80;99.90;;;;;;5017562;28;20290;-72
2022/10/27 10:32:16;;;;;;;8.03;3.63;;;16.90;99.90;;;;;;5029517;28;20341;-72
2022/10/27 10:34:44;;;;;;;;;;;17.00;99.90;;;;;;5031200;28;20843;-72
2022/10/27 10:37:41;;;;;;;8.03;3.30;;;17.10;99.90;;;;;;5030076;28;19932;-72
2022/10/27 10:40:13;;;;;;;8.17;2.90;;;17.20;99.90;;;;;;5026725;28;20669;-72
2022/10/27 10:43:00;;;;;;;8.60;3.40;;;17.40;99.90;;;;;;5032661;28;20311;-72
2022/10/27 10:45:29;;;;;;;5.57;2.90;;;17.40;99.90;;;;;;5018970;28;20292;-72
2022/10/27 10:48:30;;;;;;;7.87;3.47;;;17.50;99.90;;;;;;5026475;28;20861;-72
2022/10/27 10:50:57;;;;;;;6.47;3.13;;;17.60;99.90;;;;;;5023249;28;21065;-72
2022/10/27 10:53:24;;;;;;;7.33;3.10;;;17.70;99.90;;;;;;5032667;28;20288;-72
2022/10/27 10:55:52;;;;;;;5.93;2.70;;;17.70;99.90;;;;;;5033593;28;20287;-72
2022/10/27 10:58:20;;;;;;;5.10;2.27;;;17.80;99.90;;;;;;5017193;28;20308;-72
2022/10/27 11:01:04;;;;;;;4.73;2.30;;;17.90;99.90;;;;;;5015609;28;20349;-72
2022/10/27 11:03:33;;;;;;;6.07;2.53;;;18.00;99.90;;;;;;5037527;28;20407;-72
2022/10/27 11:06:13;;;;;;;8.80;2.57;;;18.00;99.90;;;;;;5030866;28;20323;-72
2022/10/27 11:08:42;;;;;;;6.87;2.20;;;18.00;99.90;;;;;;5040009;28;20076;-72
2022/10/27 11:11:21;;;;;;;5.20;2.17;;;18.00;99.90;;;;;;5032437;28;20088;-72
2022/10/27 11:13:57;;;;;;;5.37;2.23;;;18.00;99.90;;;;;;5034843;28;20445;-72
2022/10/27 11:16:23;;;;;;;3.97;1.90;;;18.00;99.90;;;;;;5033577;28;20505;-72
2022/10/27 11:18:58;;;;;;;6.63;1.90;;;18.00;99.90;;;;;;5032914;28;20390;-72
2022/10/27 11:21:30;;;;;;;6.67;2.10;;;18.00;99.90;;;;;;5033218;28;20060;-72
2022/10/27 11:24:05;;;;;;;5.30;1.93;;;18.00;99.90;;;;;;5033586;28;20703;-72
2022/10/27 11:26:49;;;;;;;6.55;1.90;;;18.00;99.00;;;;;;5032191;28;20045;-72
2022/10/27 11:29:40;;;;;;;10.00;2.17;;;18.00;99.20;;;;;;5032332;28;20042;-72
2022/10/27 11:32:13;;;;;;;5.73;1.90;;;18.10;97.30;;;;;;5015426;28;20037;-72
2022/10/27 11:35:24;;;;;;;7.33;2.00;;;18.10;97.90;;;;;;5032473;28;20056;-72
2022/10/27 11:38:03;;;;;;;6.07;1.67;;;18.30;97.40;;;;;;5019383;28;20119;-72
2022/10/27 11:41:08;;;;;;;6.60;1.73;;;18.40;96.80;;;;;;5015124;28;20048;-72
2022/10/27 11:43:40;;;;;;;8.30;1.93;;;18.60;97.00;;;;;;5017229;28;20076;-72
2022/10/27 11:46:49;;;;;;;4.93;1.77;;;18.70;96.70;;;;;;5013619;28;20129;-73
2022/10/27 11:49:35;;;;;;;3.90;1.23;;;18.90;91.90;;;;;;4949981;28;20043;-72
2022/10/27 11:52:20;;;;;;;3.40;1.80;;;19.10;91.90;;;;;;5011906;28;20049;-72
2022/10/27 11:54:46;;;;;;;3.77;1.50;;;19.30;92.30;;;;;;5032160;28;20344;-72
2022/10/27 11:57:37;;;;;;;5.83;1.40;;;19.40;91.30;;;;;;5030765;28;20308;-72
2022/10/27 12:00:24;;;;;;;6.33;1.27;;;19.50;90.90;;;;;;5041671;28;20045;-72
2022/10/27 12:03:13;;;;;;;4.53;1.40;;;19.60;86.70;;;;;;5031045;28;20096;-73
2022/10/27 12:06:12;;;;;;;4.20;1.20;;;19.60;88.20;;;;;;5032369;28;20045;-72
2022/10/27 12:09:10;;;;;;;5.27;1.40;;;19.50;86.00;;;;;;5016542;28;20053;-73
2022/10/27 12:11:58;;;;;;;3.53;1.60;;;19.40;87.70;;;;;;5017130;28;20486;-72
2022/10/27 12:14:27;;;;;;;4.30;1.40;;;19.30;88.00;;;;;;5015375;28;20048;-72
2022/10/27 12:17:03;;;;;;;4.47;1.30;;;19.20;88.40;;;;;;5031551;28;20049;-72
2022/10/27 12:19:37;;;;;;;5.60;1.40;;;19.10;88.00;;;;;;5034323;28;20046;-73
2022/10/27 12:22:18;;;;;;;5.17;1.23;;;19.00;87.80;;;;;;5031543;28;20520;-72
2022/10/27 12:24:53;;;;;;;6.57;1.30;;;19.00;88.40;;;;;;5032832;28;20045;-72
2022/10/27 12:27:36;;;;;;;4.80;1.27;;;18.90;89.10;;;;;;5031900;28;20428;-72
2022/10/27 12:30:09;;;;;;;3.87;1.10;;;18.90;89.40;;;;;;5015578;28;20044;-72
2022/10/27 12:32:41;;;;;;;2.63;1.10;;;18.90;89.80;;;;;;5031458;28;20037;-72
2022/10/27 12:35:22;;;;;;;6.93;1.60;;;19.00;88.50;;;;;;5034729;28;20048;-72
2022/10/27 12:38:05;;;;;;;7.13;1.20;;;19.00;88.70;;;;;;5043793;28;20056;-73
2022/10/27 12:40:46;;;;;;;4.00;0.90;;;19.10;88.30;;;;;;5032230;28;20096;-72
2022/10/27 12:43:38;;;;;;;5.03;1.10;;;19.20;87.50;;;;;;5037768;28;20073;-72
2022/10/27 12:46:13;;;;;;;3.20;1.10;;;19.20;87.00;;;;;;5032493;28;20044;-72
2022/10/27 12:49:03;;;;;;;7.47;1.33;;;19.30;87.70;;;;;;5031712;28;20064;-72
2022/10/27 12:52:06;;;;;;;3.03;1.03;;;19.30;87.10;;;;;;5014883;28;20124;-72
2022/10/27 12:54:41;;;;;;;5.53;1.77;;;19.40;86.80;;;;;;5038734;28;20504;-72
2022/10/27 12:57:18;;;;;;;4.78;1.13;;;19.40;86.50;;;;;;5033651;28;20191;-72
2022/10/27 12:59:56;;;;;;;6.03;1.43;;;19.40;85.90;;;;;;5015664;28;20176;-73
2022/10/27 13:02:27;;;;;;;8.00;1.63;;;19.40;85.60;;;;;;5013845;28;20446;-72